Atlantic, Pennsylvania
Current Conditions -  °F | °C
As of 6:53 AM on Saturday 01 Nov 2014 (Local Time) from KGKJ Reporting Station
Overcast Overcast  
Wind Chill: 32°   Ceiling: 1000
Heat Index: 39°   Visibility: 9mi
Dew Point: 36°   Wind: 10mph
Humidity: 89%   Direction: 30°NNE
Pressure: 29.98"   Gusts: NA
Location:  41.5°N, 80.33°W
Report Text: KGKJ 011053Z AUTO 03009KT 9SM BKN010 OVC014 04/02 A2998 RMK AO2 CIG 008V012 SLP159 T00390022 TSNO
Loading
Personal Weather Stations






























Interactive Weather Map
Tropical Storm Tracking
New forecast layout! Learn more

10-Day Weather Forecast

Advertisements
Track Severe Weather on mobile